createdAt,value
2022-08-14T00:01:36.602Z,13.40
2022-08-14T00:04:03.544Z,13.40
2022-08-14T00:06:50.333Z,13.30
2022-08-14T00:09:17.083Z,13.30
2022-08-14T00:11:44.522Z,13.30
2022-08-14T00:14:11.596Z,13.20
2022-08-14T00:16:45.076Z,13.20
2022-08-14T00:19:19.630Z,13.10
2022-08-14T00:21:52.086Z,13.10
2022-08-14T00:24:28.455Z,13.10
2022-08-14T00:26:58.347Z,13.10
2022-08-14T00:29:30.606Z,13.10
2022-08-14T00:32:00.120Z,13.00
2022-08-14T00:34:35.482Z,13.00
2022-08-14T00:37:05.735Z,13.00
2022-08-14T00:39:32.904Z,13.00
2022-08-14T00:41:59.912Z,13.00
2022-08-14T00:44:32.906Z,12.90
2022-08-14T00:47:10.947Z,12.90
2022-08-14T00:49:43.401Z,12.90
2022-08-14T00:52:18.104Z,12.80
2022-08-14T00:54:46.690Z,12.80
2022-08-14T00:57:13.826Z,12.80
2022-08-14T00:59:41.305Z,12.80
2022-08-14T01:02:10.689Z,12.80
2022-08-14T01:04:53.397Z,12.80
2022-08-14T01:07:22.987Z,12.70
2022-08-14T01:09:55.820Z,12.70
2022-08-14T01:12:26.312Z,12.70
2022-08-14T01:14:55.493Z,12.70
2022-08-14T01:17:49.766Z,12.70
2022-08-14T01:20:39.319Z,12.60
2022-08-14T01:23:15.633Z,12.60
2022-08-14T01:25:44.099Z,12.60
2022-08-14T01:28:47.067Z,12.50
2022-08-14T01:31:00.292Z,12.50
2022-08-14T01:33:30.161Z,12.50
2022-08-14T01:36:05.127Z,12.40
2022-08-14T01:38:37.243Z,12.40
2022-08-14T01:41:14.806Z,12.40
2022-08-14T01:43:56.056Z,12.40
2022-08-14T01:46:25.226Z,12.40
2022-08-14T01:49:01.408Z,12.40
2022-08-14T01:51:29.123Z,12.40
2022-08-14T01:54:00.764Z,12.40
2022-08-14T01:56:49.371Z,12.40
2022-08-14T01:59:37.945Z,12.40
2022-08-14T02:02:18.932Z,12.40
2022-08-14T02:04:55.746Z,12.40
2022-08-14T02:07:34.070Z,12.40
2022-08-14T02:10:15.796Z,12.40
2022-08-14T02:12:48.862Z,12.40
2022-08-14T02:15:21.763Z,12.40
2022-08-14T02:17:50.247Z,12.40
2022-08-14T02:20:19.402Z,12.40
2022-08-14T02:22:52.066Z,12.40
2022-08-14T02:25:22.007Z,12.40
2022-08-14T02:28:24.818Z,12.40
2022-08-14T02:30:38.185Z,12.40
2022-08-14T02:33:06.955Z,12.40
2022-08-14T02:35:33.729Z,12.40
2022-08-14T02:38:11.624Z,12.40
2022-08-14T02:40:48.756Z,12.40
2022-08-14T02:43:17.400Z,12.40
2022-08-14T02:45:49.705Z,12.30
2022-08-14T02:49:04.605Z,12.30
2022-08-14T02:51:07.205Z,12.30
2022-08-14T02:53:38.295Z,12.30
2022-08-14T02:56:30.496Z,12.20
2022-08-14T02:59:01.949Z,12.20
2022-08-14T03:01:43.347Z,12.20
2022-08-14T03:04:20.568Z,12.10
2022-08-14T03:07:06.589Z,12.10
2022-08-14T03:10:25.040Z,12.10
2022-08-14T03:12:31.330Z,12.00
2022-08-14T03:15:08.960Z,12.00
2022-08-14T03:17:56.009Z,12.00
2022-08-14T03:20:25.643Z,12.00
2022-08-14T03:22:52.856Z,11.90
2022-08-14T03:25:22.140Z,11.90
2022-08-14T03:27:58.323Z,11.90
2022-08-14T03:30:39.617Z,12.00
2022-08-14T03:33:11.008Z,12.00
2022-08-14T03:36:05.736Z,11.90
2022-08-14T03:39:14.827Z,11.90
2022-08-14T03:41:16.853Z,11.90
2022-08-14T03:43:45.827Z,11.90
2022-08-14T03:46:52.762Z,11.90
2022-08-14T03:49:13.879Z,11.90
2022-08-14T03:51:51.545Z,11.90
2022-08-14T03:54:20.806Z,11.90
2022-08-14T03:56:50.132Z,11.80
2022-08-14T03:59:17.731Z,11.80
2022-08-14T04:01:57.972Z,11.80
2022-08-14T04:04:32.235Z,11.80
2022-08-14T04:07:01.359Z,11.80
2022-08-14T04:09:28.462Z,11.80
2022-08-14T04:11:56.100Z,11.80
2022-08-14T04:14:25.033Z,11.70
2022-08-14T04:16:51.892Z,11.80
2022-08-14T04:19:19.913Z,11.80
2022-08-14T04:22:02.240Z,11.80
2022-08-14T04:24:37.984Z,11.80
2022-08-14T04:27:09.740Z,11.80
2022-08-14T04:29:42.546Z,11.80
2022-08-14T04:33:10.254Z,11.80
2022-08-14T04:34:57.387Z,11.80
2022-08-14T04:37:45.139Z,11.80
2022-08-14T04:40:31.921Z,11.90
2022-08-14T04:43:17.777Z,11.90
2022-08-14T04:45:45.335Z,12.00
2022-08-14T04:48:39.929Z,12.00
2022-08-14T04:51:13.482Z,12.10
2022-08-14T04:53:44.680Z,12.20
2022-08-14T04:56:33.916Z,12.30
2022-08-14T04:59:09.891Z,12.30
2022-08-14T05:01:48.677Z,12.50
2022-08-14T05:04:20.484Z,12.50
2022-08-14T05:06:54.379Z,12.60
2022-08-14T05:09:24.241Z,12.70
2022-08-14T05:11:51.493Z,12.80
2022-08-14T05:14:46.134Z,13.10
2022-08-14T05:17:06.993Z,14.00
2022-08-14T05:19:33.852Z,15.60
2022-08-14T05:22:17.123Z,17.20
2022-08-14T05:24:51.349Z,19.00
2022-08-14T05:27:23.027Z,20.80
2022-08-14T05:29:53.214Z,22.50
2022-08-14T05:32:20.424Z,24.10
2022-08-14T05:34:47.940Z,25.60
2022-08-14T05:37:15.324Z,26.90
2022-08-14T05:39:43.028Z,28.10
2022-08-14T05:42:22.399Z,29.20
2022-08-14T05:44:55.540Z,30.20
2022-08-14T05:47:23.090Z,31.20
2022-08-14T05:49:50.430Z,32.00
2022-08-14T05:52:18.891Z,32.80
2022-08-14T05:55:00.703Z,33.50
2022-08-14T05:57:27.551Z,34.30
2022-08-14T05:59:55.119Z,34.80
2022-08-14T06:02:21.877Z,35.40
2022-08-14T06:04:49.500Z,35.90
2022-08-14T06:07:16.576Z,36.40
2022-08-14T06:09:43.623Z,37.00
2022-08-14T06:12:56.120Z,37.50
2022-08-14T06:15:08.153Z,37.90
2022-08-14T06:17:55.835Z,38.40
2022-08-14T06:20:27.949Z,38.90
2022-08-14T06:22:55.399Z,39.50
2022-08-14T06:25:23.465Z,39.90
2022-08-14T06:27:52.180Z,40.40
2022-08-14T06:30:21.957Z,40.80
2022-08-14T06:32:52.730Z,41.10
2022-08-14T06:35:23.479Z,41.50
2022-08-14T06:37:51.749Z,41.80
2022-08-14T06:40:34.309Z,42.10
2022-08-14T06:43:06.911Z,42.20
2022-08-14T06:45:38.876Z,42.50
2022-08-14T06:48:24.207Z,42.80
2022-08-14T06:50:55.015Z,43.10
2022-08-14T06:53:28.307Z,43.50
2022-08-14T06:56:00.699Z,43.60
2022-08-14T06:58:31.377Z,43.80
2022-08-14T07:01:25.070Z,44.00
2022-08-14T07:04:23.994Z,44.00
2022-08-14T07:06:58.491Z,44.10
2022-08-14T07:09:40.489Z,44.00
2022-08-14T07:12:34.837Z,43.70
2022-08-14T07:15:01.153Z,43.50
2022-08-14T07:17:28.708Z,43.70
2022-08-14T07:19:58.891Z,43.90
2022-08-14T07:22:32.930Z,43.90
2022-08-14T07:25:12.931Z,44.00
2022-08-14T07:27:40.912Z,44.10
2022-08-14T07:30:34.692Z,44.20
2022-08-14T07:32:57.604Z,44.40
2022-08-14T07:35:24.393Z,43.90
2022-08-14T07:37:57.155Z,43.60
2022-08-14T07:40:27.704Z,43.90
2022-08-14T07:42:56.895Z,44.30
2022-08-14T07:45:41.591Z,44.70
2022-08-14T07:48:09.372Z,45.10
2022-08-14T07:50:42.397Z,44.50
2022-08-14T07:53:14.512Z,43.60
2022-08-14T07:55:42.863Z,43.60
2022-08-14T07:58:34.585Z,43.60
2022-08-14T08:00:57.798Z,43.60
2022-08-14T08:03:28.139Z,43.30
2022-08-14T08:05:56.911Z,42.80
2022-08-14T08:08:27.013Z,42.50
2022-08-14T08:11:03.067Z,42.80
2022-08-14T08:13:33.952Z,43.10
2022-08-14T08:16:08.157Z,43.10
2022-08-14T08:18:36.142Z,43.10
2022-08-14T08:21:03.432Z,43.10
2022-08-14T08:23:40.054Z,42.90
2022-08-14T08:26:07.100Z,42.60
2022-08-14T08:28:34.396Z,42.60
2022-08-14T08:31:05.287Z,43.00
2022-08-14T08:33:36.846Z,43.20
2022-08-14T08:36:06.619Z,42.90
2022-08-14T08:39:17.146Z,42.90
2022-08-14T08:41:21.706Z,42.90
2022-08-14T08:43:48.446Z,42.70
2022-08-14T08:46:21.453Z,42.40
2022-08-14T08:51:25.108Z,41.70
2022-08-14T08:54:15.356Z,41.30
2022-08-14T08:56:48.911Z,41.70
2022-08-14T08:59:21.038Z,42.10
2022-08-14T09:02:06.308Z,42.50
2022-08-14T09:04:45.489Z,42.60
2022-08-14T09:07:20.080Z,42.90
2022-08-14T09:09:59.770Z,43.40
2022-08-14T09:12:32.339Z,43.80
2022-08-14T09:15:11.377Z,43.80
2022-08-14T09:17:41.389Z,43.30
2022-08-14T09:20:11.397Z,42.60
2022-08-14T09:22:42.545Z,42.80
2022-08-14T09:25:19.780Z,43.10
2022-08-14T09:27:47.338Z,43.00
2022-08-14T09:30:32.675Z,43.10
2022-08-14T09:33:11.732Z,43.20
2022-08-14T09:36:00.479Z,43.00
2022-08-14T09:39:22.938Z,43.20
2022-08-14T09:42:20.824Z,43.30
2022-08-14T09:45:39.671Z,42.90
2022-08-14T09:48:30.241Z,42.50
2022-08-14T09:50:58.602Z,42.10
2022-08-14T09:54:18.073Z,42.20
2022-08-14T09:56:24.305Z,41.80
2022-08-14T09:59:15.046Z,41.50
2022-08-14T10:01:43.699Z,41.00
2022-08-14T10:04:34.744Z,40.20
2022-08-14T10:07:05.334Z,39.70
2022-08-14T10:09:35.159Z,39.40
2022-08-14T10:12:04.623Z,39.40
2022-08-14T10:14:35.310Z,39.40
2022-08-14T10:17:06.043Z,39.80
2022-08-14T10:19:35.668Z,40.10
2022-08-14T10:23:13.513Z,39.70
2022-08-14T10:24:57.578Z,39.10
2022-08-14T10:27:28.117Z,38.70
2022-08-14T10:29:59.753Z,38.30
2022-08-14T10:32:29.118Z,38.10
2022-08-14T10:35:14.615Z,37.60
2022-08-14T10:37:50.349Z,37.00
2022-08-14T10:40:38.886Z,36.70
2022-08-14T10:43:22.980Z,36.30
2022-08-14T10:45:59.851Z,36.00
2022-08-14T10:48:36.403Z,35.90
2022-08-14T10:51:08.350Z,36.20
2022-08-14T10:53:39.896Z,36.40
2022-08-14T10:56:21.593Z,36.70
2022-08-14T10:59:05.176Z,36.70
2022-08-14T11:01:38.394Z,36.80
2022-08-14T11:04:20.489Z,37.00
2022-08-14T11:06:56.862Z,36.90
2022-08-14T11:09:26.311Z,36.60
2022-08-14T11:12:36.614Z,36.00
2022-08-14T11:14:50.303Z,35.70
2022-08-14T11:17:33.101Z,35.40
2022-08-14T11:20:02.616Z,35.30
2022-08-14T11:22:52.290Z,35.40
2022-08-14T11:25:20.482Z,35.50
2022-08-14T11:27:49.098Z,35.40
2022-08-14T11:30:50.710Z,35.30
2022-08-14T11:33:09.378Z,35.40
2022-08-14T11:35:47.751Z,35.30
2022-08-14T11:38:17.134Z,35.30
2022-08-14T11:40:47.225Z,35.30
2022-08-14T11:43:15.409Z,35.10
2022-08-14T11:45:47.899Z,34.90
2022-08-14T11:49:04.048Z,34.50
2022-08-14T11:51:23.797Z,34.10
2022-08-14T11:53:57.628Z,33.70
2022-08-14T11:56:29.698Z,33.40
2022-08-14T11:58:57.395Z,33.10
2022-08-14T12:01:28.637Z,32.90
2022-08-14T12:03:59.191Z,32.70
2022-08-14T12:06:39.194Z,32.40
2022-08-14T12:09:08.569Z,32.30
2022-08-14T12:11:47.536Z,32.10
2022-08-14T12:14:30.479Z,32.00
2022-08-14T12:17:09.659Z,31.90
2022-08-14T12:19:54.288Z,31.80
2022-08-14T12:22:34.723Z,31.60
2022-08-14T12:25:05.950Z,31.40
2022-08-14T12:27:42.011Z,31.20
2022-08-14T12:30:26.843Z,31.00
2022-08-14T12:32:58.291Z,30.70
2022-08-14T12:35:39.987Z,30.60
2022-08-14T12:38:07.404Z,30.60
2022-08-14T12:40:34.255Z,30.50
2022-08-14T12:43:03.183Z,30.50
2022-08-14T12:45:33.538Z,30.40
2022-08-14T12:48:20.630Z,30.30
2022-08-14T12:50:53.846Z,30.20
2022-08-14T12:53:22.141Z,30.20
2022-08-14T12:56:18.519Z,30.20
2022-08-14T12:58:52.842Z,30.10
2022-08-14T13:01:25.562Z,30.00
2022-08-14T13:04:14.432Z,29.90
2022-08-14T13:06:50.794Z,29.90
2022-08-14T13:09:19.231Z,29.90
2022-08-14T13:11:58.802Z,29.90
2022-08-14T13:14:38.876Z,29.80
2022-08-14T13:17:07.180Z,29.80
2022-08-14T13:19:35.612Z,29.70
2022-08-14T13:22:09.660Z,29.70
2022-08-14T13:24:38.883Z,29.60
2022-08-14T13:27:06.804Z,29.50
2022-08-14T13:29:43.786Z,29.40
2022-08-14T13:32:14.018Z,29.30
2022-08-14T13:34:43.765Z,29.30
2022-08-14T13:37:17.300Z,29.20
2022-08-14T13:39:56.630Z,29.20
2022-08-14T13:42:30.518Z,29.10
2022-08-14T13:45:04.415Z,29.00
2022-08-14T13:47:33.164Z,29.00
2022-08-14T13:50:04.503Z,29.00
2022-08-14T13:52:51.714Z,29.00
2022-08-14T13:55:28.822Z,29.00
2022-08-14T13:58:03.449Z,29.00
2022-08-14T14:00:52.798Z,29.00
2022-08-14T14:03:22.163Z,28.90
2022-08-14T14:05:54.903Z,28.90
2022-08-14T14:08:43.173Z,28.90
2022-08-14T14:11:15.816Z,28.90
2022-08-14T14:13:48.527Z,28.90
2022-08-14T14:16:26.498Z,28.80
2022-08-14T14:19:09.200Z,28.80
2022-08-14T14:21:37.974Z,28.80
2022-08-14T14:24:07.692Z,28.80
2022-08-14T14:26:36.163Z,28.80
2022-08-14T14:29:06.224Z,28.80
2022-08-14T14:31:38.898Z,28.80
2022-08-14T14:34:29.024Z,28.80
2022-08-14T14:37:04.683Z,28.70
2022-08-14T14:39:35.381Z,28.70
2022-08-14T14:42:06.537Z,28.70
2022-08-14T14:44:40.255Z,28.70
2022-08-14T14:47:11.088Z,28.60
2022-08-14T14:49:51.434Z,28.60
2022-08-14T14:52:26.906Z,28.60
2022-08-14T14:54:58.439Z,28.50
2022-08-14T14:57:35.277Z,28.50
2022-08-14T15:00:13.047Z,28.40
2022-08-14T15:02:46.139Z,28.30
2022-08-14T15:05:16.089Z,28.30
2022-08-14T15:07:44.108Z,28.30
2022-08-14T15:10:27.683Z,28.30
2022-08-14T15:13:00.250Z,28.30
2022-08-14T15:15:32.806Z,28.30
2022-08-14T15:18:00.132Z,28.20
2022-08-14T15:20:29.635Z,28.20
2022-08-14T15:22:58.500Z,28.20
2022-08-14T15:25:25.936Z,28.10
2022-08-14T15:27:54.561Z,28.10
2022-08-14T15:30:24.092Z,28.10
2022-08-14T15:32:59.154Z,28.10
2022-08-14T15:35:29.723Z,28.00
2022-08-14T15:38:08.607Z,28.10
2022-08-14T15:40:41.164Z,28.10
2022-08-14T15:43:10.875Z,28.00
2022-08-14T15:45:41.108Z,28.00
2022-08-14T15:48:08.990Z,27.90
2022-08-14T15:50:50.699Z,27.90
2022-08-14T15:53:17.880Z,27.90
2022-08-14T15:55:47.076Z,27.80
2022-08-14T15:58:15.021Z,27.80
2022-08-14T16:01:00.259Z,27.80
2022-08-14T16:03:35.300Z,27.70
2022-08-14T16:06:15.442Z,27.70
2022-08-14T16:08:58.768Z,27.70
2022-08-14T16:11:28.863Z,27.70
2022-08-14T16:13:59.802Z,27.70
2022-08-14T16:16:34.540Z,27.60
2022-08-14T16:19:19.434Z,27.60
2022-08-14T16:22:01.867Z,27.60
2022-08-14T16:24:59.978Z,27.60
2022-08-14T16:27:34.142Z,27.60
2022-08-14T16:30:10.976Z,27.50
2022-08-14T16:32:55.594Z,27.50
2022-08-14T16:35:26.338Z,27.50
2022-08-14T16:37:55.665Z,27.40
2022-08-14T16:43:04.125Z,27.30
2022-08-14T16:45:43.391Z,27.30
2022-08-14T16:48:55.263Z,27.20
2022-08-14T16:50:58.516Z,27.10
2022-08-14T16:53:27.643Z,27.00
2022-08-14T16:56:17.242Z,27.00
2022-08-14T16:59:20.265Z,26.90
2022-08-14T17:02:00.271Z,26.80
2022-08-14T17:04:34.515Z,26.70
2022-08-14T17:07:13.030Z,26.70
2022-08-14T17:09:53.122Z,26.60
2022-08-14T17:12:34.992Z,26.60
2022-08-14T17:15:10.019Z,26.50
2022-08-14T17:17:40.613Z,26.50
2022-08-14T17:20:33.998Z,26.50
2022-08-14T17:22:59.507Z,26.40
2022-08-14T17:25:29.906Z,26.40
2022-08-14T17:28:50.302Z,26.40
2022-08-14T17:31:03.101Z,26.30
2022-08-14T17:33:40.574Z,26.30
2022-08-14T17:36:21.650Z,26.20
2022-08-14T17:39:09.042Z,26.20
2022-08-14T17:41:48.407Z,26.00
2022-08-14T17:44:44.957Z,26.00
2022-08-14T17:47:14.523Z,25.90
2022-08-14T17:49:47.515Z,25.80
2022-08-14T17:52:34.531Z,25.80
2022-08-14T17:55:06.656Z,25.70
2022-08-14T17:57:40.627Z,25.70
2022-08-14T18:00:16.454Z,25.60
2022-08-14T18:02:50.798Z,25.50
2022-08-14T18:05:23.695Z,25.40
2022-08-14T18:08:33.110Z,25.30
2022-08-14T18:10:56.807Z,25.30
2022-08-14T18:13:50.415Z,25.20
2022-08-14T18:16:20.125Z,25.10
2022-08-14T18:18:48.770Z,25.00
2022-08-14T18:21:41.649Z,24.90
2022-08-14T18:24:03.508Z,24.90
2022-08-14T18:26:36.818Z,24.80
2022-08-14T18:29:14.654Z,24.70
2022-08-14T18:31:45.330Z,24.60
2022-08-14T18:34:31.027Z,24.50
2022-08-14T18:37:16.549Z,24.30
2022-08-14T18:40:01.458Z,24.20
2022-08-14T18:42:34.639Z,24.10
2022-08-14T18:45:01.922Z,24.00
2022-08-14T18:47:56.558Z,23.90
2022-08-14T18:50:27.810Z,23.70
2022-08-14T18:53:10.824Z,23.50
2022-08-14T18:55:52.929Z,23.30
2022-08-14T18:58:45.408Z,23.10
2022-08-14T19:01:24.115Z,23.00
2022-08-14T19:03:52.044Z,22.80
2022-08-14T19:06:19.245Z,22.60
2022-08-14T19:08:49.103Z,22.50
2022-08-14T19:11:32.053Z,22.30
2022-08-14T19:13:59.789Z,22.20
2022-08-14T19:16:36.811Z,22.00
2022-08-14T19:19:09.561Z,21.90
2022-08-14T19:21:40.771Z,21.80
2022-08-14T19:24:30.904Z,21.60
2022-08-14T19:27:23.924Z,21.50
2022-08-14T19:30:10.567Z,21.40
2022-08-14T19:32:50.996Z,21.30
2022-08-14T19:35:49.376Z,21.20
2022-08-14T19:38:33.434Z,21.00
2022-08-14T19:41:12.524Z,20.90
2022-08-14T19:43:55.686Z,20.80
2022-08-14T19:46:37.870Z,20.70
2022-08-14T19:49:06.792Z,20.60
2022-08-14T19:51:43.541Z,20.50
2022-08-14T19:54:13.709Z,20.40
2022-08-14T19:56:45.378Z,20.30
2022-08-14T19:59:17.691Z,20.30
2022-08-14T20:01:44.806Z,20.20
2022-08-14T20:04:45.377Z,20.10
2022-08-14T20:07:08.957Z,20.00
2022-08-14T20:11:06.795Z,19.90
2022-08-14T20:12:28.842Z,19.80
2022-08-14T20:15:06.302Z,19.70
2022-08-14T20:17:40.404Z,19.60
2022-08-14T20:20:31.682Z,19.50
2022-08-14T20:23:11.301Z,19.50
2022-08-14T20:25:45.512Z,19.40
2022-08-14T20:28:31.989Z,19.30
2022-08-14T20:31:13.569Z,19.20
2022-08-14T20:33:48.211Z,19.20
2022-08-14T20:36:26.702Z,19.20
2022-08-14T20:38:57.523Z,19.00
2022-08-14T20:41:24.351Z,19.00
2022-08-14T20:44:09.746Z,18.90
2022-08-14T20:46:39.513Z,18.80
2022-08-14T20:49:18.559Z,18.70
2022-08-14T20:51:58.438Z,18.60
2022-08-14T20:54:33.979Z,18.60
2022-08-14T20:57:10.035Z,18.50
2022-08-14T20:59:53.071Z,18.40
2022-08-14T21:02:34.719Z,18.30
2022-08-14T21:05:16.263Z,18.30
2022-08-14T21:07:44.530Z,18.30
2022-08-14T21:10:35.358Z,18.20
2022-08-14T21:13:26.215Z,18.20
2022-08-14T21:15:57.130Z,18.10
2022-08-14T21:18:47.381Z,18.10
2022-08-14T21:21:17.923Z,18.00
2022-08-14T21:23:54.699Z,17.90
2022-08-14T21:26:51.110Z,17.80
2022-08-14T21:29:19.387Z,17.70
2022-08-14T21:31:55.911Z,17.70
2022-08-14T21:34:31.131Z,17.70
2022-08-14T21:37:08.819Z,17.60
2022-08-14T21:39:36.630Z,17.60
2022-08-14T21:42:05.813Z,17.50
2022-08-14T21:44:43.313Z,17.50
2022-08-14T21:47:12.892Z,17.40
2022-08-14T21:49:40.166Z,17.40
2022-08-14T21:52:50.351Z,17.40
2022-08-14T21:55:09.243Z,17.40
2022-08-14T21:58:46.092Z,17.30
2022-08-14T22:00:35.111Z,17.30
2022-08-14T22:03:09.194Z,17.30
2022-08-14T22:05:38.692Z,17.20
2022-08-14T22:08:06.563Z,17.30
2022-08-14T22:10:35.235Z,17.30
2022-08-14T22:13:02.225Z,17.30
2022-08-14T22:15:32.391Z,17.30
2022-08-14T22:18:00.365Z,17.30
2022-08-14T22:20:29.916Z,17.30
2022-08-14T22:22:58.854Z,17.30
2022-08-14T22:25:34.102Z,17.40
2022-08-14T22:28:06.173Z,17.30
2022-08-14T22:30:37.198Z,17.30
2022-08-14T22:33:05.723Z,17.30
2022-08-14T22:35:37.390Z,17.30
2022-08-14T22:38:35.813Z,17.30
2022-08-14T22:41:25.190Z,17.40
2022-08-14T22:43:39.691Z,17.30
2022-08-14T22:46:14.761Z,17.30
2022-08-14T22:48:45.222Z,17.30
2022-08-14T22:51:15.996Z,17.30
2022-08-14T22:53:46.185Z,17.30
2022-08-14T22:56:20.586Z,17.30
2022-08-14T22:58:50.096Z,17.30
2022-08-14T23:01:56.676Z,17.30
2022-08-14T23:04:35.119Z,17.40
2022-08-14T23:07:05.264Z,17.40
2022-08-14T23:09:38.026Z,17.50
2022-08-14T23:12:28.313Z,17.50
2022-08-14T23:14:53.614Z,17.60
2022-08-14T23:17:22.622Z,17.70
2022-08-14T23:19:49.576Z,17.80
2022-08-14T23:22:24.339Z,17.90
2022-08-14T23:24:56.849Z,18.00
2022-08-14T23:28:02.507Z,18.20
2022-08-14T23:30:31.765Z,18.30
2022-08-14T23:33:02.364Z,18.40
2022-08-14T23:35:33.118Z,18.50
2022-08-14T23:38:01.936Z,18.60
2022-08-14T23:40:30.740Z,18.70
2022-08-14T23:43:09.200Z,18.70
2022-08-14T23:45:40.107Z,18.80
2022-08-14T23:48:12.426Z,18.80
2022-08-14T23:50:40.750Z,18.90
2022-08-14T23:53:27.939Z,18.90
2022-08-14T23:55:57.581Z,19.00
2022-08-14T23:58:29.762Z,19.00
